Aérodrome :
LOGIN :

S'inscrire | Disclaimer

   EN    FR    IT 

 










Légende :    VFR   VFR Marginal   IFR   IFR Intensif   IFR Très Intensif
Visi : 
Plafond : 
>= 8 km
>= 3000ft
5 à 8 km
1000 à 3000 ft
1500m à 5 km
500 à 1000 ft
800 à 1500m
200 à 500 ft
< 800m
< 200 ft
Symboles :   Orages  Brouillard  Fortes neiges  Fortes précipitations  Vent > 20 kt
SIGMETs :   Divers  Orages  Givrage  Turbulence  Onde Orograph.  Cendres Volcan.







- Altitude de l'aérodrome : 83 ft
- Code IATA : LHR
- Voir les cartes d'approche


EGLL - London Heathrow

DERNIER METAR :
  • 181420Z AUTO VRB03KT 9999 -RA SCT033 BKN046 17/14 Q1013 TEMPO +SHRA

METARs EXPIRÉS :
  • 181350Z AUTO 07004KT 350V100 9999 NCD 18/14 Q1013 TEMPO SHRA
  • 181320Z AUTO 11005KT 070V130 9999 -RA FEW025/// SCT034/// //////TCU 17/14 Q1014 NOSIG
  • 181250Z AUTO VRB03KT 9999 -RA FEW049/// //////TCU 18/13 Q1014
  • 181220Z AUTO 13004KT 060V210 9999 -RA FEW036 17/13 Q1014 TEMPO RA
  • 181150Z AUTO 17006KT 140V220 9999 -RA FEW035/// //////TCU 17/12 Q1014 TEMPO RA

TAF TAF EGLL
Valide du 18 à 12h jusqu'au 19 à 18h UTC


181053Z 1812/1918 VRB05KT 9999 FEW045
TEMPO 1812/1916 6000 RA SHRA
PROB30
TEMPO 1902/1908 3000 +SHRA TSRA BKN009 BKN045CB
BECMG 1912/1915 28010KT
Pas de NOTAMs connus pour ce terrain.



MET'MAP, la Météo Aéronautique d'un coup d'oeil ! - Copyright ORBIFLY Décembre 2007 - Disclaimer

ORBIFLY MET'MAP TEAM :

Programmation & Développement : Alexandra Zaïnal
Conception & Développement : Baudouin d'Aumeries
Co-Programmation & Développement : Marc-Olivier Méhu
Soutien technique & logistique : Manuel Goepfert

Contact : metmap@orbifly.com




SOURCES & CREDITS :

   NOAA